createdAt,value
2018-08-22T00:04:01.557Z,70.95
2018-08-22T00:19:01.671Z,71.88
2018-08-22T00:24:01.471Z,72.71
2018-08-22T00:34:01.532Z,72.93
2018-08-22T00:39:01.596Z,72.93
2018-08-22T00:44:01.477Z,73.43
2018-08-22T00:54:01.583Z,73.71
2018-08-22T01:04:01.555Z,74.48
2018-08-22T01:09:01.615Z,74.48
2018-08-22T01:14:01.469Z,74.52
2018-08-22T01:24:01.638Z,73.93
2018-08-22T01:34:01.625Z,74.38
2018-08-22T01:45:01.683Z,74.30
2018-08-22T01:55:01.585Z,74.86
2018-08-22T02:00:01.610Z,74.86
2018-08-22T02:05:01.546Z,74.91
2018-08-22T02:15:01.654Z,73.82
2018-08-22T02:50:01.151Z,71.89
2018-08-22T02:55:00.978Z,73.51
2018-08-22T03:00:01.125Z,73.51
2018-08-22T03:05:00.913Z,73.87
2018-08-22T03:15:05.906Z,74.32
2018-08-22T03:25:05.917Z,75.21
2018-08-22T03:30:05.931Z,75.21
2018-08-22T03:35:05.914Z,75.94
2018-08-22T03:40:05.913Z,75.94
2018-08-22T03:45:05.917Z,76.50
2018-08-22T03:55:01.394Z,76.74
2018-08-22T04:00:00.974Z,76.74
2018-08-22T04:05:00.916Z,77.25
2018-08-22T04:15:00.905Z,76.15
2018-08-22T04:30:01.044Z,77.49
2018-08-22T04:35:00.909Z,76.04
2018-08-22T04:45:00.917Z,75.32
2018-08-22T04:50:00.918Z,75.32
2018-08-22T04:55:00.918Z,75.20
2018-08-22T05:00:00.938Z,75.20
2018-08-22T05:05:00.910Z,75.41
2018-08-22T05:15:00.921Z,77.36
2018-08-22T05:20:00.930Z,77.36
2018-08-22T05:25:00.921Z,78.98
2018-08-22T05:30:01.136Z,78.98
2018-08-22T05:35:00.925Z,78.66
2018-08-22T05:45:00.900Z,74.50
2018-08-22T05:50:00.935Z,74.50
2018-08-22T05:55:00.947Z,72.25
2018-08-22T06:00:00.949Z,72.25
2018-08-22T06:05:00.948Z,70.48
2018-08-22T06:10:00.991Z,70.48
2018-08-22T06:15:00.963Z,68.30
2018-08-22T06:20:00.949Z,68.30
2018-08-22T06:25:00.804Z,65.55
2018-08-22T06:30:01.161Z,65.55
2018-08-22T06:35:00.961Z,64.09
2018-08-22T06:40:01.059Z,64.09
2018-08-22T06:45:01.219Z,62.35
2018-08-22T06:50:01.019Z,62.35
2018-08-22T06:55:00.981Z,60.10
2018-08-22T07:00:01.160Z,60.10
2018-08-22T07:05:00.958Z,59.73
2018-08-22T07:10:01.082Z,59.73
2018-08-22T07:15:01.172Z,58.44
2018-08-22T07:20:01.185Z,58.44
2018-08-22T07:25:00.961Z,56.56
2018-08-22T07:30:01.372Z,56.56
2018-08-22T07:35:01.011Z,55.61
2018-08-22T07:40:01.140Z,55.61
2018-08-22T07:45:01.165Z,54.46
2018-08-22T07:50:01.036Z,54.46
2018-08-22T07:55:01.017Z,52.74
2018-08-22T08:00:01.387Z,52.74
2018-08-22T08:05:01.060Z,53.67
2018-08-22T08:10:01.018Z,53.67
2018-08-22T08:15:01.142Z,52.88
2018-08-22T08:20:01.189Z,52.88
2018-08-22T08:25:01.054Z,51.32
2018-08-22T08:30:01.203Z,51.32
2018-08-22T08:35:01.022Z,50.60
2018-08-22T08:40:01.235Z,50.60
2018-08-22T08:45:01.157Z,49.32
2018-08-22T08:50:01.109Z,49.32
2018-08-22T08:55:01.051Z,49.24
2018-08-22T09:00:01.293Z,49.24
2018-08-22T09:05:01.042Z,48.41
2018-08-22T09:10:01.104Z,48.41
2018-08-22T09:15:01.119Z,48.46
2018-08-22T09:20:01.175Z,48.46
2018-08-22T09:25:00.975Z,47.41
2018-08-22T09:30:01.464Z,47.41
2018-08-22T09:35:00.989Z,46.70
2018-08-22T09:40:01.290Z,46.70
2018-08-22T09:45:01.251Z,46.21
2018-08-22T09:50:01.288Z,46.21
2018-08-22T09:55:00.988Z,47.35
2018-08-22T10:00:01.840Z,47.35
2018-08-22T10:05:01.051Z,45.25
2018-08-22T10:10:01.710Z,45.25
2018-08-22T10:15:01.486Z,45.04
2018-08-22T10:20:01.066Z,45.04
2018-08-22T10:25:01.006Z,45.18
2018-08-22T10:30:01.334Z,45.18
2018-08-22T10:35:01.130Z,44.26
2018-08-22T10:40:01.152Z,44.26
2018-08-22T10:45:01.181Z,43.43
2018-08-22T10:55:01.069Z,42.68
2018-08-22T11:00:01.284Z,42.68
2018-08-22T11:05:01.256Z,43.58
2018-08-22T11:10:01.369Z,43.58
2018-08-22T11:15:01.163Z,42.54
2018-08-22T11:20:01.228Z,42.54
2018-08-22T11:25:03.289Z,41.54
2018-08-22T11:30:01.614Z,41.54
2018-08-22T11:40:01.158Z,41.69
2018-08-22T11:45:01.260Z,40.50
2018-08-22T11:50:01.255Z,40.50
2018-08-22T11:55:01.067Z,40.94
2018-08-22T12:00:01.300Z,40.94
2018-08-22T12:05:01.043Z,39.98
2018-08-22T12:10:01.121Z,39.98
2018-08-22T12:15:01.948Z,40.84
2018-08-22T12:20:01.150Z,40.84
2018-08-22T12:25:01.159Z,40.00
2018-08-22T12:30:01.234Z,40.00
2018-08-22T12:45:01.405Z,39.81
2018-08-22T12:55:01.357Z,38.09
2018-08-22T13:00:01.316Z,38.09
2018-08-22T13:05:01.023Z,40.54
2018-08-22T13:15:01.310Z,39.34
2018-08-22T13:20:01.159Z,39.34
2018-08-22T13:30:01.308Z,38.21
2018-08-22T13:35:01.076Z,39.09
2018-08-22T13:45:01.306Z,39.42
2018-08-22T13:50:01.102Z,39.42
2018-08-22T14:00:01.329Z,39.78
2018-08-22T14:05:06.056Z,37.67
2018-08-22T14:15:06.520Z,39.17
2018-08-22T14:25:01.258Z,40.03
2018-08-22T14:30:01.324Z,40.03
2018-08-22T14:35:06.081Z,39.54
2018-08-22T14:40:01.191Z,39.54
2018-08-22T14:45:02.034Z,39.82
2018-08-22T14:50:01.262Z,39.82
2018-08-22T15:00:01.408Z,39.42
2018-08-22T15:05:06.066Z,39.76
2018-08-22T15:15:01.418Z,41.22
2018-08-22T15:20:02.219Z,41.22
2018-08-22T15:25:01.135Z,41.85
2018-08-22T15:30:02.016Z,41.85
2018-08-22T15:35:06.090Z,41.77
2018-08-22T15:45:01.278Z,42.67
2018-08-22T15:50:01.237Z,42.67
2018-08-22T16:00:01.357Z,43.21
2018-08-22T16:05:06.103Z,44.01
2018-08-22T16:10:01.304Z,44.01
2018-08-22T16:15:06.234Z,43.79
2018-08-22T16:20:01.252Z,43.79
2018-08-22T16:25:01.203Z,46.00
2018-08-22T16:30:01.278Z,46.00
2018-08-22T16:35:01.293Z,45.69
2018-08-22T16:40:01.280Z,45.69
2018-08-22T16:45:01.381Z,46.81
2018-08-22T16:50:06.240Z,46.81
2018-08-22T16:55:06.266Z,50.06
2018-08-22T17:00:06.245Z,50.06
2018-08-22T17:05:01.240Z,47.67
2018-08-22T17:15:01.295Z,48.48
2018-08-22T17:20:01.238Z,48.48
2018-08-22T17:25:03.356Z,53.71
2018-08-22T17:30:01.246Z,53.71
2018-08-22T17:35:01.267Z,57.41
2018-08-22T17:40:01.236Z,57.41
2018-08-22T17:45:01.279Z,60.34
2018-08-22T17:50:01.285Z,60.34
2018-08-22T17:55:01.369Z,62.55
2018-08-22T18:00:01.307Z,62.55
2018-08-22T18:05:01.723Z,64.52
2018-08-22T18:10:01.334Z,64.52
2018-08-22T18:15:01.265Z,66.92
2018-08-22T18:20:01.364Z,66.92
2018-08-22T18:25:01.258Z,69.38
2018-08-22T18:30:01.331Z,69.38
2018-08-22T18:35:01.790Z,69.66
2018-08-22T18:40:01.290Z,69.66
2018-08-22T18:45:01.398Z,70.64
2018-08-22T18:50:01.254Z,70.64
2018-08-22T18:55:01.266Z,72.33
2018-08-22T19:00:01.463Z,72.33
2018-08-22T19:20:01.697Z,74.04
2018-08-22T19:25:02.185Z,75.05
2018-08-22T19:30:01.612Z,75.05
2018-08-22T19:35:01.701Z,76.26
2018-08-22T19:45:01.730Z,77.09
2018-08-22T19:50:01.732Z,77.09
2018-08-22T19:55:01.556Z,77.46
2018-08-22T20:00:01.835Z,77.46
2018-08-22T20:05:01.552Z,78.11
2018-08-22T20:10:01.553Z,78.11
2018-08-22T20:15:02.225Z,78.96
2018-08-22T20:25:01.568Z,78.91
2018-08-22T20:30:01.621Z,78.91
2018-08-22T20:35:01.565Z,79.59
2018-08-22T20:40:01.637Z,79.59
2018-08-22T20:45:01.607Z,79.75
2018-08-22T20:55:01.582Z,80.45
2018-08-22T21:00:01.568Z,80.45
2018-08-22T21:05:01.627Z,80.48
2018-08-22T21:10:01.513Z,80.48
2018-08-22T21:15:01.436Z,80.95
2018-08-22T21:20:01.528Z,80.95
2018-08-22T21:30:01.643Z,81.89
2018-08-22T21:35:01.453Z,82.38
2018-08-22T21:45:01.641Z,83.68
2018-08-22T21:50:01.594Z,83.68
2018-08-22T22:00:01.603Z,83.43
2018-08-22T22:05:01.709Z,82.90
2018-08-22T22:10:01.519Z,82.90
2018-08-22T22:15:01.463Z,82.99
2018-08-22T22:30:01.634Z,83.03
2018-08-22T22:35:01.463Z,82.85
2018-08-22T22:40:01.570Z,82.85
2018-08-22T22:45:01.530Z,83.25
2018-08-22T22:50:01.646Z,83.25
2018-08-22T22:55:01.479Z,82.41
2018-08-22T23:00:01.693Z,82.41
2018-08-22T23:05:01.515Z,82.37
2018-08-22T23:15:01.630Z,83.08
2018-08-22T23:20:01.621Z,83.08
2018-08-22T23:25:03.218Z,83.35
2018-08-22T23:30:01.575Z,83.35
2018-08-22T23:35:01.512Z,83.26
2018-08-22T23:45:01.673Z,83.88
2018-08-22T23:50:01.677Z,83.88
